createdAt,value
2018-12-22T00:02:01.495Z,74.77
2018-12-22T00:04:30.333Z,75.04
2018-12-22T00:06:59.181Z,75.25
2018-12-22T00:09:28.016Z,75.52
2018-12-22T00:11:56.870Z,75.34
2018-12-22T00:14:25.828Z,75.92
2018-12-22T00:16:54.662Z,75.61
2018-12-22T00:19:23.699Z,75.92
2018-12-22T00:21:52.585Z,76.03
2018-12-22T00:24:21.557Z,76.47
2018-12-22T00:26:50.463Z,76.95
2018-12-22T00:29:19.304Z,76.18
2018-12-22T00:31:48.242Z,76.31
2018-12-22T00:34:17.136Z,76.50
2018-12-22T00:36:46.034Z,76.89
2018-12-22T00:39:15.345Z,76.18
2018-12-22T00:41:44.246Z,76.96
2018-12-22T00:44:13.089Z,76.81
2018-12-22T00:46:42.057Z,76.43
2018-12-22T00:49:10.869Z,76.47
2018-12-22T00:51:39.785Z,76.54
2018-12-22T00:54:08.629Z,76.65
2018-12-22T00:56:38.121Z,75.67
2018-12-22T00:59:06.972Z,75.62
2018-12-22T01:01:35.838Z,76.50
2018-12-22T01:04:04.860Z,75.95
2018-12-22T01:06:33.836Z,75.66
2018-12-22T01:09:03.658Z,76.36
2018-12-22T01:11:32.550Z,75.32
2018-12-22T01:14:01.376Z,76.24
2018-12-22T01:16:30.202Z,75.86
2018-12-22T01:18:59.109Z,75.18
2018-12-22T01:21:28.089Z,76.30
2018-12-22T01:23:57.108Z,75.20
2018-12-22T01:26:25.994Z,75.47
2018-12-22T01:28:54.869Z,75.84
2018-12-22T01:31:23.721Z,75.16
2018-12-22T01:33:52.557Z,75.40
2018-12-22T01:36:21.441Z,75.85
2018-12-22T01:38:50.344Z,75.60
2018-12-22T01:41:19.213Z,75.85
2018-12-22T01:43:48.225Z,75.03
2018-12-22T01:46:17.196Z,76.00
2018-12-22T01:48:46.095Z,76.08
2018-12-22T01:51:14.985Z,75.81
2018-12-22T01:53:43.839Z,76.01
2018-12-22T01:56:12.777Z,75.79
2018-12-22T01:58:47.820Z,75.23
2018-12-22T02:01:12.592Z,75.16
2018-12-22T02:03:41.898Z,75.23
2018-12-22T02:06:10.831Z,76.20
2018-12-22T02:08:39.752Z,75.01
2018-12-22T02:11:08.624Z,76.15
2018-12-22T02:13:37.613Z,75.84
2018-12-22T02:16:06.459Z,74.99
2018-12-22T02:18:35.319Z,75.51
2018-12-22T02:21:04.289Z,76.05
2018-12-22T02:23:33.104Z,76.32
2018-12-22T02:26:01.966Z,75.20
2018-12-22T02:28:30.825Z,75.66
2018-12-22T02:30:59.880Z,76.19
2018-12-22T02:33:29.229Z,75.94
2018-12-22T02:35:58.194Z,76.02
2018-12-22T02:38:27.048Z,75.90
2018-12-22T02:40:56.005Z,75.79
2018-12-22T02:43:24.978Z,75.30
2018-12-22T02:45:53.969Z,76.45
2018-12-22T02:48:23.789Z,76.31
2018-12-22T02:50:52.632Z,76.32
2018-12-22T02:53:22.289Z,76.89
2018-12-22T02:55:51.253Z,76.24
2018-12-22T02:58:20.136Z,76.67
2018-12-22T03:00:49.057Z,76.83
2018-12-22T03:03:18.020Z,75.76
2018-12-22T03:05:47.847Z,76.40
2018-12-22T03:08:16.764Z,75.99
2018-12-22T03:10:45.631Z,75.71
2018-12-22T03:13:14.511Z,76.27
2018-12-22T03:15:44.725Z,75.52
2018-12-22T03:18:13.578Z,76.45
2018-12-22T03:20:42.524Z,75.61
2018-12-22T03:23:11.377Z,76.53
2018-12-22T03:25:40.425Z,76.14
2018-12-22T03:28:09.456Z,76.29
2018-12-22T03:30:38.296Z,76.44
2018-12-22T03:33:07.166Z,75.67
2018-12-22T03:35:36.070Z,75.83
2018-12-22T03:38:05.176Z,76.12
2018-12-22T03:40:34.148Z,76.14
2018-12-22T03:43:03.157Z,75.84
2018-12-22T03:45:32.130Z,76.12
2018-12-22T03:48:01.133Z,76.70
2018-12-22T03:50:30.049Z,76.95
2018-12-22T03:52:59.123Z,79.13
2018-12-22T03:55:28.005Z,81.95
2018-12-22T03:57:57.895Z,82.52
2018-12-22T04:00:27.032Z,83.67
2018-12-22T04:02:56.209Z,85.65
2018-12-22T04:05:25.201Z,85.62
2018-12-22T04:07:54.103Z,86.14
2018-12-22T04:10:22.980Z,86.15
2018-12-22T04:12:51.797Z,88.81
2018-12-22T04:15:20.652Z,89.34
2018-12-22T04:17:49.564Z,90.15
2018-12-22T04:20:18.978Z,90.19
2018-12-22T04:22:47.878Z,90.59
2018-12-22T04:25:16.849Z,90.28
2018-12-22T04:27:45.847Z,90.59
2018-12-22T04:30:14.991Z,90.64
2018-12-22T04:32:44.020Z,90.40
2018-12-22T04:35:12.925Z,90.09
2018-12-22T04:37:41.817Z,90.73
2018-12-22T04:40:10.686Z,89.91
2018-12-22T04:42:39.512Z,89.95
2018-12-22T04:45:08.598Z,88.70
2018-12-22T04:47:40.025Z,88.57
2018-12-22T04:50:08.913Z,87.93
2018-12-22T04:52:37.796Z,87.99
2018-12-22T04:55:06.820Z,87.29
2018-12-22T04:57:35.920Z,88.06
2018-12-22T05:00:05.504Z,88.72
2018-12-22T05:02:34.396Z,89.45
2018-12-22T05:05:03.416Z,89.43
2018-12-22T05:07:32.273Z,89.79
2018-12-22T05:10:01.185Z,90.60
2018-12-22T05:12:30.157Z,90.97
2018-12-22T05:14:59.046Z,90.74
2018-12-22T05:17:27.932Z,90.98
2018-12-22T05:19:56.817Z,91.56
2018-12-22T05:22:26.348Z,90.69
2018-12-22T05:24:55.330Z,91.36
2018-12-22T05:27:24.232Z,91.09
2018-12-22T05:29:53.217Z,90.87
2018-12-22T05:32:22.557Z,90.21
2018-12-22T05:34:51.573Z,89.68
2018-12-22T05:37:20.504Z,89.00
2018-12-22T05:39:49.407Z,89.58
2018-12-22T05:42:18.224Z,89.13
2018-12-22T05:44:47.236Z,88.15
2018-12-22T05:47:16.140Z,88.06
2018-12-22T05:49:44.973Z,88.12
2018-12-22T05:52:14.553Z,88.22
2018-12-22T05:54:43.459Z,88.19
2018-12-22T05:57:12.557Z,88.15
2018-12-22T05:59:44.525Z,87.83
2018-12-22T06:02:13.372Z,87.91
2018-12-22T06:04:42.272Z,88.39
2018-12-22T06:07:11.304Z,87.58
2018-12-22T06:09:40.274Z,87.62
2018-12-22T06:12:09.173Z,87.00
2018-12-22T06:14:38.126Z,86.92
2018-12-22T06:17:07.104Z,86.56
2018-12-22T06:19:35.940Z,86.79
2018-12-22T06:22:04.837Z,85.89
2018-12-22T06:24:33.776Z,87.51
2018-12-22T06:27:02.594Z,87.65
2018-12-22T06:29:31.492Z,88.81
2018-12-22T06:32:00.672Z,89.48
2018-12-22T06:34:29.680Z,90.75
2018-12-22T06:36:59.091Z,90.77
2018-12-22T06:39:27.925Z,89.53
2018-12-22T06:41:56.857Z,89.83
2018-12-22T06:44:25.809Z,88.85
2018-12-22T06:46:54.642Z,89.58
2018-12-22T06:49:24.337Z,89.45
2018-12-22T06:51:53.913Z,89.57
2018-12-22T06:54:22.742Z,89.99
2018-12-22T06:56:51.645Z,89.72
2018-12-22T06:59:20.529Z,89.81
2018-12-22T07:01:49.524Z,90.97
2018-12-22T07:04:18.411Z,90.84
2018-12-22T07:06:47.243Z,90.35
2018-12-22T07:09:16.756Z,89.96
2018-12-22T07:11:45.633Z,90.25
2018-12-22T07:14:14.577Z,89.70
2018-12-22T07:16:43.501Z,89.24
2018-12-22T07:19:12.490Z,89.37
2018-12-22T07:21:41.386Z,88.84
2018-12-22T07:24:10.317Z,87.93
2018-12-22T07:26:40.078Z,87.68
2018-12-22T07:29:08.952Z,86.98
2018-12-22T07:31:37.792Z,86.17
2018-12-22T07:34:06.633Z,86.59
2018-12-22T07:36:35.521Z,85.95
2018-12-22T07:39:07.188Z,86.75
2018-12-22T07:41:36.568Z,86.46
2018-12-22T07:44:05.496Z,86.33
2018-12-22T07:46:34.438Z,86.12
2018-12-22T07:49:04.301Z,85.80
2018-12-22T07:51:33.217Z,86.23
2018-12-22T07:54:02.061Z,85.88
2018-12-22T07:56:30.893Z,85.63
2018-12-22T07:58:59.845Z,87.01
2018-12-22T08:01:28.660Z,86.90
2018-12-22T08:03:57.536Z,87.26
2018-12-22T08:06:26.435Z,86.22
2018-12-22T08:08:55.269Z,86.87
2018-12-22T08:11:25.119Z,85.42
2018-12-22T08:13:54.064Z,86.19
2018-12-22T08:16:23.036Z,86.49
2018-12-22T08:18:51.987Z,86.02
2018-12-22T08:21:20.873Z,85.71
2018-12-22T08:23:49.758Z,85.96
2018-12-22T08:26:18.749Z,85.71
2018-12-22T08:28:47.636Z,85.75
2018-12-22T08:31:16.609Z,84.50
2018-12-22T08:33:45.445Z,84.76
2018-12-22T08:36:14.304Z,85.19
2018-12-22T08:38:44.181Z,84.35
2018-12-22T08:41:13.124Z,83.89
2018-12-22T08:43:41.972Z,83.14
2018-12-22T08:46:10.800Z,82.67
2018-12-22T08:48:40.704Z,81.76
2018-12-22T08:51:09.517Z,81.90
2018-12-22T08:53:38.325Z,82.69
2018-12-22T08:56:07.276Z,82.83
2018-12-22T08:58:36.172Z,83.69
2018-12-22T09:01:05.183Z,83.09
2018-12-22T09:03:34.073Z,81.80
2018-12-22T09:06:02.944Z,82.27
2018-12-22T09:08:31.856Z,82.93
2018-12-22T09:11:00.730Z,82.47
2018-12-22T09:13:29.805Z,82.35
2018-12-22T09:15:58.616Z,83.00
2018-12-22T09:18:27.494Z,81.82
2018-12-22T09:20:56.341Z,81.98
2018-12-22T09:23:25.165Z,81.39
2018-12-22T09:25:54.089Z,81.88
2018-12-22T09:28:22.953Z,81.37
2018-12-22T09:31:00.474Z,81.36
2018-12-22T09:33:22.676Z,80.97
2018-12-22T09:35:52.468Z,80.33
2018-12-22T09:38:21.308Z,80.61
2018-12-22T09:40:50.184Z,80.68
2018-12-22T09:43:19.050Z,80.67
2018-12-22T09:45:47.948Z,82.03
2018-12-22T09:48:16.773Z,81.28
2018-12-22T09:50:45.741Z,80.71
2018-12-22T09:53:14.557Z,80.33
2018-12-22T09:55:43.434Z,80.79
2018-12-22T09:58:12.413Z,80.83
2018-12-22T10:00:42.077Z,81.30
2018-12-22T10:03:11.429Z,81.90
2018-12-22T10:05:44.475Z,81.63
2018-12-22T10:08:13.281Z,80.94
2018-12-22T10:10:42.173Z,80.72
2018-12-22T10:13:11.009Z,80.51
2018-12-22T10:15:39.960Z,80.75
2018-12-22T10:18:08.860Z,80.30
2018-12-22T10:20:37.761Z,81.27
2018-12-22T10:23:06.651Z,80.68
2018-12-22T10:25:35.640Z,80.21
2018-12-22T10:28:04.640Z,81.04
2018-12-22T10:30:34.148Z,80.62
2018-12-22T10:33:04.990Z,80.93
2018-12-22T10:35:33.882Z,80.24
2018-12-22T10:38:02.814Z,80.53
2018-12-22T10:40:31.751Z,81.32
2018-12-22T10:43:00.657Z,81.61
2018-12-22T10:45:29.613Z,82.29
2018-12-22T10:47:58.729Z,82.68
2018-12-22T10:50:27.697Z,84.43
2018-12-22T10:52:56.607Z,85.62
2018-12-22T10:55:25.457Z,86.14
2018-12-22T10:57:54.286Z,85.84
2018-12-22T11:00:23.129Z,86.81
2018-12-22T11:02:52.060Z,87.05
2018-12-22T11:05:20.963Z,86.71
2018-12-22T11:07:49.986Z,88.68
2018-12-22T11:10:22.148Z,88.22
2018-12-22T11:12:53.956Z,88.26
2018-12-22T11:15:22.827Z,88.46
2018-12-22T11:17:51.969Z,89.07
2018-12-22T11:20:20.847Z,89.70
2018-12-22T11:22:50.012Z,89.35
2018-12-22T11:25:22.713Z,89.23
2018-12-22T11:27:52.954Z,90.52
2018-12-22T11:30:30.666Z,90.01
2018-12-22T11:32:59.640Z,90.57
2018-12-22T11:35:29.551Z,91.01
2018-12-22T11:37:58.465Z,90.81
2018-12-22T11:40:27.482Z,91.24
2018-12-22T11:42:56.521Z,91.71
2018-12-22T11:45:25.413Z,92.11
2018-12-22T11:48:04.995Z,91.17
2018-12-22T11:50:33.965Z,91.29
2018-12-22T11:53:02.850Z,90.79
2018-12-22T11:55:31.750Z,91.65
2018-12-22T11:58:01.419Z,91.61
2018-12-22T12:00:30.427Z,89.30
2018-12-22T12:02:59.254Z,88.46
2018-12-22T12:05:28.096Z,88.83
2018-12-22T12:07:57.008Z,89.04
2018-12-22T12:10:25.828Z,89.15
2018-12-22T12:12:54.780Z,87.29
2018-12-22T12:15:26.413Z,86.97
2018-12-22T12:19:06.954Z,87.47
2018-12-22T12:21:36.570Z,86.08
2018-12-22T12:24:05.500Z,85.79
2018-12-22T12:26:34.397Z,85.06
2018-12-22T12:29:03.284Z,85.60
2018-12-22T12:31:32.167Z,84.57
2018-12-22T12:34:01.277Z,85.20
2018-12-22T12:36:30.300Z,86.33
2018-12-22T12:38:59.289Z,84.39
2018-12-22T12:41:28.144Z,83.67
2018-12-22T12:43:57.037Z,83.69
2018-12-22T12:46:34.458Z,83.81
2018-12-22T12:49:03.542Z,85.16
2018-12-22T12:51:32.601Z,83.81
2018-12-22T12:54:01.491Z,85.30
2018-12-22T12:56:31.004Z,83.16
2018-12-22T12:58:59.880Z,83.82
2018-12-22T13:01:28.785Z,84.01
2018-12-22T13:03:57.669Z,82.88
2018-12-22T13:06:26.693Z,83.37
2018-12-22T13:08:56.096Z,83.54
2018-12-22T13:11:25.049Z,83.20
2018-12-22T13:13:57.519Z,82.87
2018-12-22T13:16:26.343Z,83.36
2018-12-22T13:18:55.224Z,83.57
2018-12-22T13:21:24.421Z,82.90
2018-12-22T13:23:53.296Z,82.21
2018-12-22T13:26:22.128Z,83.07
2018-12-22T13:28:51.006Z,82.39
2018-12-22T13:31:22.616Z,82.92
2018-12-22T13:33:51.516Z,81.17
2018-12-22T13:36:20.376Z,81.90
2018-12-22T13:38:58.746Z,80.49
2018-12-22T13:41:27.628Z,81.96
2018-12-22T13:43:56.577Z,82.36
2018-12-22T13:46:25.445Z,81.44
2018-12-22T13:48:54.542Z,82.02
2018-12-22T13:51:23.719Z,82.14
2018-12-22T13:53:53.297Z,81.72
2018-12-22T13:56:22.205Z,80.50
2018-12-22T13:58:51.043Z,81.53
2018-12-22T14:01:21.606Z,81.44
2018-12-22T14:03:51.378Z,79.80
2018-12-22T14:06:27.008Z,78.68
2018-12-22T14:08:55.916Z,78.95
2018-12-22T14:11:24.759Z,79.54
2018-12-22T14:13:55.433Z,79.20
2018-12-22T14:16:30.194Z,79.21
2018-12-22T14:19:03.632Z,78.54
2018-12-22T14:21:32.483Z,80.38
2018-12-22T14:24:10.076Z,80.90
2018-12-22T14:26:39.153Z,82.31
2018-12-22T14:29:08.109Z,83.29
2018-12-22T14:31:38.008Z,83.58
2018-12-22T14:34:11.961Z,82.63
2018-12-22T14:36:41.254Z,82.15
2018-12-22T14:39:10.437Z,82.90
2018-12-22T14:41:39.577Z,80.83
2018-12-22T14:44:08.571Z,80.80
2018-12-22T14:46:37.476Z,82.32
2018-12-22T14:49:06.379Z,81.94
2018-12-22T14:51:35.415Z,81.82
2018-12-22T14:54:05.137Z,81.95
2018-12-22T14:56:44.360Z,82.12
2018-12-22T14:59:15.567Z,82.34
2018-12-22T15:01:46.688Z,81.54
2018-12-22T15:04:15.572Z,82.39
2018-12-22T15:06:44.426Z,82.36
2018-12-22T15:09:13.655Z,82.62
2018-12-22T15:11:42.548Z,82.17
2018-12-22T15:14:11.389Z,82.45
2018-12-22T15:16:40.318Z,82.49
2018-12-22T15:19:09.200Z,81.69
2018-12-22T15:21:38.177Z,81.94
2018-12-22T15:24:08.285Z,82.53
2018-12-22T15:26:37.108Z,81.83
2018-12-22T15:29:06.067Z,81.33
2018-12-22T15:31:34.897Z,81.35
2018-12-22T15:34:04.123Z,81.42
2018-12-22T15:36:33.705Z,80.76
2018-12-22T15:39:03.774Z,81.37
2018-12-22T15:41:32.696Z,80.10
2018-12-22T15:44:01.526Z,80.70
2018-12-22T15:46:30.492Z,80.37
2018-12-22T15:48:59.414Z,80.65
2018-12-22T15:51:29.200Z,80.03
2018-12-22T15:53:58.120Z,81.22
2018-12-22T15:56:26.986Z,80.61
2018-12-22T15:58:55.941Z,80.54
2018-12-22T16:01:24.769Z,80.17
2018-12-22T16:03:53.691Z,80.25
2018-12-22T16:06:22.518Z,80.30
2018-12-22T16:08:52.374Z,80.22
2018-12-22T16:11:21.191Z,79.84
2018-12-22T16:13:50.067Z,80.40
2018-12-22T16:16:19.136Z,80.31
2018-12-22T16:18:47.977Z,80.06
2018-12-22T16:21:17.794Z,80.23
2018-12-22T16:23:46.755Z,79.29
2018-12-22T16:26:16.204Z,79.32
2018-12-22T16:28:51.403Z,79.64
2018-12-22T16:31:20.311Z,79.04
2018-12-22T16:33:49.280Z,79.87
2018-12-22T16:36:18.193Z,79.92
2018-12-22T16:38:47.041Z,79.42
2018-12-22T16:41:16.229Z,79.82
2018-12-22T16:43:45.118Z,79.32
2018-12-22T16:46:13.909Z,79.72
2018-12-22T16:48:45.251Z,79.22
2018-12-22T16:51:14.933Z,80.11
2018-12-22T16:53:43.793Z,80.03
2018-12-22T16:56:12.672Z,79.63
2018-12-22T16:58:44.512Z,80.27
2018-12-22T17:01:29.021Z,79.83
2018-12-22T17:03:57.846Z,79.98
2018-12-22T17:06:26.700Z,80.00
2018-12-22T17:08:55.696Z,80.33
2018-12-22T17:11:24.553Z,80.48
2018-12-22T17:13:53.345Z,80.15
2018-12-22T17:16:22.240Z,80.06
2018-12-22T17:18:51.129Z,79.86
2018-12-22T17:21:25.513Z,79.61
2018-12-22T17:24:33.078Z,79.72
2018-12-22T17:27:02.005Z,80.10
2018-12-22T17:29:30.875Z,80.07
2018-12-22T17:31:59.682Z,79.71
2018-12-22T17:34:28.502Z,79.67
2018-12-22T17:36:57.376Z,80.24
2018-12-22T17:39:26.259Z,79.37
2018-12-22T17:41:55.105Z,80.32
2018-12-22T17:44:24.120Z,80.20
2018-12-22T17:46:52.985Z,80.03
2018-12-22T17:49:21.841Z,80.30
2018-12-22T17:51:50.709Z,80.35
2018-12-22T17:54:19.530Z,79.67
2018-12-22T17:56:48.448Z,80.00
2018-12-22T17:59:17.337Z,80.31
2018-12-22T18:01:46.149Z,81.17
2018-12-22T18:04:15.183Z,80.63
2018-12-22T18:06:44.085Z,80.03
2018-12-22T18:09:13.541Z,80.50
2018-12-22T18:11:42.432Z,80.44
2018-12-22T18:14:11.765Z,80.57
2018-12-22T18:16:40.693Z,80.46
2018-12-22T18:19:09.548Z,80.80
2018-12-22T18:21:38.568Z,80.74
2018-12-22T18:24:07.423Z,80.28
2018-12-22T18:26:36.244Z,79.94
2018-12-22T18:29:05.290Z,79.93
2018-12-22T18:31:34.125Z,79.91
2018-12-22T18:34:02.989Z,80.14
2018-12-22T18:36:31.947Z,80.86
2018-12-22T18:39:00.884Z,80.26
2018-12-22T18:41:31.736Z,81.17
2018-12-22T18:44:00.592Z,80.11
2018-12-22T18:46:29.409Z,81.36
2018-12-22T18:48:58.262Z,81.05
2018-12-22T18:51:27.198Z,80.27
2018-12-22T18:53:56.013Z,81.22
2018-12-22T18:56:25.944Z,80.54
2018-12-22T18:58:56.335Z,80.24
2018-12-22T19:01:25.410Z,81.07
2018-12-22T19:03:54.241Z,81.07
2018-12-22T19:06:23.072Z,81.26
2018-12-22T19:08:52.993Z,80.54
2018-12-22T19:11:22.119Z,80.80
2018-12-22T19:13:50.988Z,80.25
2018-12-22T19:16:20.902Z,80.68
2018-12-22T19:18:49.715Z,81.08
2018-12-22T19:21:18.657Z,80.92
2018-12-22T19:23:47.434Z,80.43
2018-12-22T19:26:16.308Z,80.24
2018-12-22T19:28:45.241Z,81.08
2018-12-22T19:31:14.082Z,80.92
2018-12-22T19:33:43.985Z,81.28
2018-12-22T19:36:12.832Z,80.09
2018-12-22T19:38:41.651Z,80.68
2018-12-22T19:41:10.791Z,80.76
2018-12-22T19:43:39.745Z,80.33
2018-12-22T19:46:08.560Z,80.92
2018-12-22T19:48:37.392Z,81.62
2018-12-22T19:51:06.200Z,80.94
2018-12-22T19:53:35.097Z,81.64
2018-12-22T19:56:04.048Z,81.67
2018-12-22T19:58:32.936Z,82.08
2018-12-22T20:01:01.858Z,81.42
2018-12-22T20:03:30.712Z,81.24
2018-12-22T20:06:00.527Z,81.61
2018-12-22T20:08:29.427Z,82.53
2018-12-22T20:10:58.254Z,81.98
2018-12-22T20:13:27.049Z,82.35
2018-12-22T20:15:55.868Z,82.01
2018-12-22T20:18:24.701Z,82.02
2018-12-22T20:20:53.574Z,81.94
2018-12-22T20:23:22.453Z,81.94
2018-12-22T20:25:51.329Z,82.15
2018-12-22T20:28:20.181Z,82.47
2018-12-22T20:30:49.019Z,82.07
2018-12-22T20:33:17.808Z,82.60
2018-12-22T20:35:46.816Z,82.72
2018-12-22T20:38:15.699Z,82.96
2018-12-22T20:40:44.518Z,82.22
2018-12-22T20:43:13.357Z,82.55
2018-12-22T20:45:42.213Z,82.36
2018-12-22T20:48:11.113Z,82.50
2018-12-22T20:50:40.393Z,82.07
2018-12-22T20:53:09.258Z,81.68
2018-12-22T20:55:38.139Z,82.32
2018-12-22T20:58:06.971Z,81.21
2018-12-22T21:00:35.801Z,81.88
2018-12-22T21:03:05.005Z,80.63
2018-12-22T21:05:37.708Z,81.43
2018-12-22T21:08:06.524Z,81.49
2018-12-22T21:10:35.344Z,81.32
2018-12-22T21:13:04.317Z,81.17
2018-12-22T21:15:33.389Z,81.11
2018-12-22T21:18:02.213Z,81.29
2018-12-22T21:20:31.135Z,82.29
2018-12-22T21:23:00.910Z,81.86
2018-12-22T21:25:30.547Z,82.22
2018-12-22T21:27:59.526Z,81.35
2018-12-22T21:30:28.445Z,81.62
2018-12-22T21:32:57.304Z,82.68
2018-12-22T21:35:26.185Z,82.58
2018-12-22T21:37:55.016Z,82.24
2018-12-22T21:40:23.840Z,82.88
2018-12-22T21:42:52.686Z,83.10
2018-12-22T21:45:21.513Z,83.25
2018-12-22T21:47:50.329Z,82.74
2018-12-22T21:50:19.149Z,82.95
2018-12-22T21:52:47.973Z,83.62
2018-12-22T21:55:16.921Z,83.18
2018-12-22T21:57:45.862Z,83.15
2018-12-22T22:00:14.743Z,83.67
2018-12-22T22:02:43.652Z,83.39
2018-12-22T22:05:12.985Z,83.17
2018-12-22T22:07:41.819Z,83.94
2018-12-22T22:10:10.872Z,83.76
2018-12-22T22:12:39.733Z,83.81
2018-12-22T22:15:08.589Z,83.69
2018-12-22T22:17:37.413Z,84.48
2018-12-22T22:20:06.524Z,83.94
2018-12-22T22:22:35.409Z,84.60
2018-12-22T22:25:04.531Z,84.58
2018-12-22T22:27:33.445Z,83.79
2018-12-22T22:30:02.405Z,83.84
2018-12-22T22:32:31.335Z,83.76
2018-12-22T22:35:00.508Z,84.25
2018-12-22T22:37:29.421Z,83.47
2018-12-22T22:39:58.453Z,84.43
2018-12-22T22:42:27.806Z,83.72
2018-12-22T22:44:56.642Z,83.81
2018-12-22T22:47:25.447Z,84.31
2018-12-22T22:49:54.252Z,83.23
2018-12-22T22:52:23.112Z,83.87
2018-12-22T22:54:52.848Z,83.88
2018-12-22T22:57:22.289Z,83.86
2018-12-22T22:59:51.094Z,83.60
2018-12-22T23:02:19.993Z,83.70
2018-12-22T23:04:54.299Z,83.97
2018-12-22T23:07:19.744Z,83.62
2018-12-22T23:09:48.637Z,83.90
2018-12-22T23:12:17.553Z,84.51
2018-12-22T23:14:46.380Z,84.32
2018-12-22T23:17:15.304Z,84.48
2018-12-22T23:19:44.365Z,85.53
2018-12-22T23:22:13.160Z,84.63
2018-12-22T23:24:42.233Z,84.95
2018-12-22T23:27:11.225Z,84.85
2018-12-22T23:29:40.057Z,85.47
2018-12-22T23:32:08.884Z,84.81
2018-12-22T23:34:37.764Z,85.78
2018-12-22T23:37:06.697Z,85.52
2018-12-22T23:39:35.520Z,85.84
2018-12-22T23:42:04.524Z,86.12
2018-12-22T23:44:33.325Z,85.25
2018-12-22T23:47:02.156Z,85.71
2018-12-22T23:52:33.162Z,84.81
2018-12-22T23:55:02.029Z,84.63
2018-12-22T23:57:31.029Z,83.87
2018-12-22T23:59:59.922Z,83.83
